Flight Track Log - Related Links

Times and Time Zones

All times are in EDT time to prevent confusion due to time zone crossing. See the SWA2336 flight status page for this flight to view local times or setup timezone preferences in your user account.


Time Position Orientation Groundspeed Altitude Reporting Facility
EDT Latitude Longitude Course Direction KTS MPH feet Rate Location/Type
Sat 01:23:02 PM 39.7667 -86.2500 49° Northeast 202 232 3,100  Level Indianapolis TRACON
Sat 01:24:02 PM 39.8000 -86.3167 303° West 247 284 5,500 2,250 Climbing Indianapolis TRACON
Sat 01:25:02 PM 39.7667 -86.4000 243° Southwest 279 321 7,600 2,632 Climbing Indianapolis TRACON
Sat 01:25:56 PM 39.7333 -86.4833 243° Southwest 283 326 10,500 2,504 Climbing Indianapolis TRACON
Sat 01:27:09 PM 39.7017 -86.6042 251° West 300 345 12,900 2,373 Climbing Indianapolis Center
Sat 01:28:10 PM 39.6644 -86.7272 249° West 355 409 15,800 2,634 Climbing Indianapolis Center
Sat 01:29:12 PM 39.6608 -86.8656 268° West 377 434 18,300 2,537 Climbing Indianapolis Center
Sat 01:30:13 PM 39.6558 -87.0072 267° West 389 448 21,000 2,705 Climbing Indianapolis Center
Sat 01:31:14 PM 39.6528 -87.1503 268° West 392 451 23,800 2,585 Climbing Indianapolis Center
Sat 01:32:16 PM 39.6478 -87.2919 267° West 392 451 26,300 2,146 Climbing Indianapolis Center
Sat 01:33:17 PM 39.6411 -87.4611 267° West 401 461 28,200 1,869 Climbing Indianapolis Center
Sat 01:34:18 PM 39.6367 -87.6094 268° West 410 472 30,100 1,707 Climbing Indianapolis Center
Sat 01:35:20 PM 39.6311 -87.7567 267° West 407 468 31,700 1,512 Climbing Indianapolis Center
Sat 01:36:21 PM 39.6442 -87.9086 276° West 422 486 33,200 1,561 Climbing Indianapolis Center
Sat 01:37:23 PM 39.6608 -88.0564 278° West 417 480 34,900 1,736 Climbing Indianapolis Center
Sat 01:38:22 PM 39.6725 -88.1883 277° West 404 465 36,700 1,488 Climbing Kansas City Center
Sat 01:39:24 PM 39.6672 -88.3342 267° West 383 441 37,900 629 Climbing Kansas City Center
Sat 01:40:26 PM 39.6625 -88.4756 268° West 387 445 38,000 48 Climbing Kansas City Center
Sat 01:41:28 PM 39.6578 -88.6186 268° West 393 452 38,000  Level Kansas City Center
Sat 01:42:29 PM 39.6522 -88.7631 267° West 398 458 38,000  Level Kansas City Center
Sat 01:43:31 PM 39.6478 -88.9067 268° West 399 459 38,000  Level Kansas City Center
Sat 01:44:33 PM 39.6414 -89.0814 267° West 402 463 38,000  Level Kansas City Center
Sat 01:45:35 PM 39.6350 -89.2272 267° West 404 465 38,000  Level Kansas City Center
Sat 01:46:37 PM 39.6303 -89.3586 267° West 403 464 38,000  Level Kansas City Center
Sat 01:47:39 PM 39.6242 -89.5017 267° West 401 461 38,000  Level Kansas City Center
Sat 01:48:41 PM 39.6161 -89.6744 267° West 402 463 38,000  Level Kansas City Center
Sat 01:49:43 PM 39.6103 -89.8183 267° West 402 463 38,000  Level Kansas City Center
Sat 01:50:44 PM 39.6042 -89.9628 267° West 403 464 38,000  Level Kansas City Center
Sat 01:51:46 PM 39.5969 -90.1069 266° West 403 464 38,000  Level Kansas City Center
Sat 01:52:48 PM 39.5900 -90.2517 266° West 404 465 38,000  Level Kansas City Center
Sat 01:53:50 PM 39.5819 -90.4228 267° West 401 461 38,000  Level Kansas City Center
Sat 01:54:52 PM 39.5742 -90.5681 266° West 404 465 38,000  Level Kansas City Center
Sat 01:55:54 PM 39.5681 -90.7122 267° West 404 465 38,000  Level Kansas City Center
Sat 01:56:56 PM 39.5592 -90.8578 266° West 405 466 38,000  Level Kansas City Center
Sat 01:57:58 PM 39.5514 -91.0036 266° West 407 468 38,000  Level Kansas City Center
Sat 01:59:00 PM 39.5439 -91.1500 266° West 409 471 38,000  Level Kansas City Center
Sat 02:00:02 PM 39.5336 -91.3319 266° West 413 475 38,000  Level Kansas City Center
Sat 02:01:04 PM 39.5233 -91.4831 265° West 419 482 38,000  Level Kansas City Center
Sat 02:02:06 PM 39.5147 -91.6331 266° West 420 483 38,000  Level Kansas City Center
Sat 02:03:08 PM 39.5056 -91.7856 266° West 424 488 38,000  Level Kansas City Center
Sat 02:04:10 PM 39.4961 -91.9381 265° West 426 490 38,000  Level Kansas City Center
Sat 02:05:12 PM 39.4867 -92.0886 265° West 424 488 38,000  Level Kansas City Center
Sat 02:06:14 PM 39.4756 -92.2656 265° West 417 480 38,000  Level Kansas City Center
Sat 02:07:16 PM 39.4650 -92.4150 265° West 417 480 38,000  Level Kansas City Center
Sat 02:08:18 PM 39.4547 -92.5647 265° West 419 482 38,000  Level Kansas City Center
Sat 02:09:20 PM 39.4439 -92.7150 265° West 419 482 38,000  Level Kansas City Center
Sat 02:10:22 PM 39.4336 -92.8669 265° West 423 487 38,000  Level Kansas City Center
Sat 02:11:23 PM 39.4222 -93.0206 265° West 428 493 38,000  Level Kansas City Center
Sat 02:12:25 PM 39.4094 -93.2050 265° West 431 496 38,000  Level Kansas City Center
Sat 02:13:27 PM 39.3969 -93.3583 264° West 431 496 38,000  Level Kansas City Center
Sat 02:14:29 PM 39.3850 -93.5136 264° West 435 501 38,000  Level Kansas City Center
Sat 02:15:31 PM 39.3744 -93.6689 265° West 435 501 38,000  Level Kansas City Center
Sat 02:16:33 PM 39.3606 -93.8453 264° West 434 499 38,000  Level Kansas City Center
Sat 02:17:35 PM 39.3483 -93.9942 264° West 436 502 38,000  Level Kansas City Center
Sat 02:18:37 PM 39.3358 -94.1436 264° West 437 503 38,000  Level Kansas City Center
Sat 02:19:38 PM 39.3214 -94.3169 264° West 435 501 38,000  Level Kansas City Center
Sat 02:20:41 PM 39.3092 -94.4650 264° West 434 499 38,000  Level Kansas City Center
Sat 02:21:42 PM 39.2950 -94.6364 264° West 431 496 38,000  Level Kansas City Center
Sat 02:22:44 PM 39.2811 -94.7836 263° West 431 496 38,000  Level Kansas City Center
Sat 02:23:46 PM 39.2600 -94.9528 261° West 430 495 38,000  Level Kansas City Center
Sat 02:24:47 PM 39.2439 -95.0975 262° West 427 491 38,000  Level Kansas City Center
Sat 02:25:49 PM 39.2233 -95.2700 261° West 428 493 38,000  Level Kansas City Center
Sat 02:26:51 PM 39.2069 -95.4228 262° West 431 496 38,000  Level Kansas City Center
Sat 02:27:53 PM 39.1889 -95.5719 261° West 430 495 38,000  Level Kansas City Center
Sat 02:28:55 PM 39.1708 -95.7189 261° West 433 498 38,000  Level Kansas City Center
Sat 02:29:56 PM 39.1497 -95.8925 261° West 441 507 38,000  Level Kansas City Center
Sat 02:30:58 PM 39.1314 -96.0408 261° West 439 505 38,000  Level Kansas City Center
Sat 02:32:00 PM 39.1106 -96.2139 261° West 438 504 38,000  Level Kansas City Center
Sat 02:33:02 PM 39.0908 -96.3639 260° West 443 510 38,000  Level Kansas City Center
Sat 02:34:03 PM 39.0692 -96.5367 261° West 440 506 38,000  Level Kansas City Center
Sat 02:35:05 PM 39.0478 -96.6875 260° West 443 510 38,000  Level Kansas City Center
Sat 02:36:07 PM 39.0258 -96.8608 261° West 443 510 38,000  Level Kansas City Center
Sat 02:37:09 PM 39.0072 -97.0111 261° West 442 509 38,000  Level Kansas City Center
Sat 02:38:11 PM 38.9850 -97.1600 259° West 443 510 38,000  Level Kansas City Center
Sat 02:39:12 PM 38.9661 -97.3236 262° West 447 514 38,000  Level Kansas City Center
Sat 02:40:14 PM 38.9450 -97.4781 260° West 443 510 38,000  Level Kansas City Center
Sat 02:41:16 PM 38.9225 -97.6583 261° West 442 509 38,000  Level Kansas City Center
Sat 02:42:18 PM 38.9186 -97.8092 268° West 440 506 38,000  Level Kansas City Center
Sat 02:43:19 PM 38.9106 -97.9781 267° West 444 511 38,000  Level Kansas City Center
Sat 02:44:21 PM 38.9042 -98.1353 267° West 443 510 38,000  Level Kansas City Center
Sat 02:45:23 PM 38.8964 -98.2906 266° West 441 507 38,000  Level Kansas City Center
Sat 02:46:24 PM 38.8903 -98.4469 267° West 441 507 38,000  Level Kansas City Center
Sat 02:47:26 PM 38.8819 -98.6053 266° West 444 511 38,000  Level Kansas City Center
Sat 02:48:28 PM 38.8731 -98.7953 267° West 447 514 38,000  Level Kansas City Center
Sat 02:49:30 PM 38.8661 -98.9542 267° West 447 514 38,000  Level Kansas City Center
Sat 02:50:31 PM 38.8578 -99.1133 266° West 449 517 38,000  Level Kansas City Center
Sat 02:51:33 PM 38.8486 -99.2742 266° West 451 519 38,000  Level Kansas City Center
Sat 02:52:35 PM 38.8494 -99.4336 270° West 450 518 38,000  Level Kansas City Center
Sat 02:53:05 PM 38.8500 -99.5108 271° West 449 517 38,000  Level Denver Center
Sat 02:54:06 PM 38.8517 -99.6883 271° West 449 517 38,000  Level Denver Center
Sat 02:55:08 PM 38.8528 -99.8397 271° West 447 514 38,000  Level Denver Center
Sat 02:56:09 PM 38.8539 -99.9642 271° West 443 510 38,000  Level Denver Center
Sat 02:57:11 PM 38.8547 -100.1672 270° West 446 513 38,000  Level Denver Center
Sat 02:58:13 PM 38.8547 -100.3431 270° West 443 510 38,000  Level Denver Center
Sat 02:59:14 PM 38.8547 -100.4942 270° West 444 511 38,000  Level Denver Center
Sat 03:00:16 PM 38.8556 -100.6447 270° West 444 511 38,000  Level Denver Center
Sat 03:01:17 PM 38.8558 -100.8242 270° West 451 519 38,000  Level Denver Center
Sat 03:02:19 PM 38.8542 -100.9758 269° West 449 517 38,000  Level Denver Center
Sat 03:03:21 PM 38.8547 -101.1525 270° West 446 513 38,000  Level Denver Center
Sat 03:04:22 PM 38.8531 -101.3031 269° West 445 512 38,000  Level Denver Center
Sat 03:05:24 PM 38.8525 -101.4811 270° West 447 514 38,000  Level Denver Center
Sat 03:06:26 PM 38.8503 -101.6303 269° West 438 504 38,000  Level Denver Center
Sat 03:07:27 PM 38.8492 -101.8044 270° West 437 503 38,000  Level Denver Center
Sat 03:08:29 PM 38.8478 -101.9517 269° West 434 499 38,000  Level Denver Center
Sat 03:09:30 PM 38.8461 -102.1006 269° West 435 501 38,000  Level Denver Center
Sat 03:10:32 PM 38.8422 -102.2475 268° West 434 499 38,000  Level Denver Center
Sat 03:11:34 PM 38.8408 -102.4200 269° West 436 502 38,000  Level Denver Center
Sat 03:12:35 PM 38.8378 -102.5919 269° West 433 498 38,000  Level Denver Center
Sat 03:13:37 PM 38.8358 -102.7422 269° West 440 506 38,000  Level Denver Center
Sat 03:14:38 PM 38.8336 -102.9106 269° West 439 505 38,000  Level Denver Center
Sat 03:15:40 PM 38.8297 -103.0681 268° West 438 504 38,000  Level Denver Center
Sat 03:16:42 PM 38.8269 -103.2267 269° West 440 506 38,000  Level Denver Center
Sat 03:17:43 PM 38.8233 -103.3833 268° West 437 503 38,000  Level Denver Center
Sat 03:18:45 PM 38.8186 -103.5414 268° West 438 504 38,000  Level Denver Center
Sat 03:19:47 PM 38.8019 -103.7125 263° West 437 503 38,000  Level Denver Center
Sat 03:20:48 PM 38.7767 -103.8586 258° West 440 506 38,000  Level Denver Center
Sat 03:21:50 PM 38.7489 -104.0294 258° West 439 505 38,000  Level Denver Center
Sat 03:22:52 PM 38.7222 -104.1881 258° West 442 509 38,000  Level Denver Center
Sat 03:23:53 PM 38.6964 -104.3431 258° West 441 507 38,000  Level Denver Center
Sat 03:24:55 PM 38.6692 -104.4992 257° West 443 510 38,000  Level Denver Center
Sat 03:25:57 PM 38.6422 -104.6542 257° West 441 507 38,000  Level Denver Center
Sat 03:26:58 PM 38.6144 -104.8111 257° West 446 513 38,000  Level Denver Center
Sat 03:28:12 PM 38.5822 -104.9919 257° West 443 510 38,000  Level Denver Center
Sat 03:29:14 PM 38.5556 -105.1461 258° West 439 505 38,000  Level Denver Center
Sat 03:30:16 PM 38.5275 -105.3017 257° West 443 510 38,000  Level Denver Center
Sat 03:31:17 PM 38.4992 -105.4536 257° West 439 505 38,000  Level Denver Center
Sat 03:32:19 PM 38.4667 -105.6342 257° West 442 509 38,000  Level Denver Center
Sat 03:33:21 PM 38.4381 -105.7878 257° West 442 509 38,000  Level Denver Center
Sat 03:34:23 PM 38.4114 -105.9317 257° West 443 510 38,000  Level Denver Center
Sat 03:35:24 PM 38.3792 -106.1025 257° West 443 510 38,000  Level Denver Center
Sat 03:36:26 PM 38.3522 -106.2472 257° West 440 506 38,000  Level Denver Center
Sat 03:37:27 PM 38.3225 -106.3997 256° West 441 507 38,000  Level Denver Center
Sat 03:38:29 PM 38.2914 -106.5622 256° West 442 509 38,000  Level Denver Center
Sat 03:39:31 PM 38.2625 -106.7094 256° West 446 513 38,000  Level Denver Center
Sat 03:40:32 PM 38.2333 -106.8578 256° West 440 506 38,000  Level Denver Center
Sat 03:41:34 PM 38.2033 -107.0097 256° West 441 507 38,000  Level Denver Center
Sat 03:42:36 PM 38.1686 -107.1914 256° West 440 506 38,000  Level Denver Center
Sat 03:43:37 PM 38.1400 -107.3344 256° West 438 504 38,000  Level Denver Center
Sat 03:44:39 PM 38.1106 -107.4758 255° West 434 499 38,000  Level Denver Center
Sat 03:45:41 PM 38.0789 -107.6414 256° West 432 497 38,000  Level Denver Center
Sat 03:46:42 PM 38.0475 -107.7936 255° West 434 499 38,000  Level Denver Center
Sat 03:47:44 PM 38.0181 -107.9339 255° West 430 495 38,000  Level Denver Center
Sat 03:48:46 PM 37.9847 -108.1000 256° West 434 499 38,000  Level Denver Center
Sat 03:49:47 PM 37.9553 -108.2433 255° West 439 505 38,000  Level Denver Center
Sat 03:50:49 PM 37.9253 -108.3839 255° West 435 501 38,000  Level Denver Center
Sat 03:51:51 PM 37.8908 -108.5478 255° West 434 499 38,000  Level Denver Center
Sat 03:52:52 PM 37.8611 -108.6881 255° West 433 498 38,000  Level Denver Center
Sat 03:53:54 PM 37.8256 -108.8514 255° West 432 497 38,000  Level Denver Center
Sat 03:54:56 PM 37.7947 -108.9889 254° West 428 493 38,000  Level Denver Center
Sat 03:55:57 PM 37.7539 -109.1519 252° West 434 499 38,000  Level Denver Center
Sat 03:56:58 PM 37.7258 -109.2681 253° West 435 501 38,000  Level Denver Center
Sat 03:58:00 PM 37.6794 -109.4500 252° West 430 495 38,000  Level Denver Center
Sat 03:59:02 PM 37.6447 -109.5872 252° West 430 495 38,000  Level Denver Center
Sat 04:00:04 PM 37.6100 -109.7258 252° West 433 498 38,000  Level Denver Center
Sat 04:01:05 PM 37.5697 -109.8867 253° West 433 498 38,000 -146 Level Denver Center
Sat 04:02:07 PM 37.5339 -110.0239 252° West 433 498 37,700 -537 Descending Denver Center
Sat 04:03:08 PM 37.5042 -110.1394 252° West 436 502 36,900 -927 Descending Denver Center
Sat 04:04:10 PM 37.4608 -110.3094 252° West 434 499 35,800 -971 Descending Denver Center
Sat 04:05:24 PM 37.4144 -110.4878 252° West 445 512 34,700 -1,015 Descending Denver Center
Sat 04:06:26 PM 37.3678 -110.6628 251° West 443 510 33,500 -1,073 Descending Denver Center
Sat 04:07:27 PM 37.3286 -110.8117 252° West 450 518 32,500 -829 Descending Denver Center
Sat 04:08:29 PM 37.2969 -110.9319 252° West 452 520 31,800 -919 Descending Denver Center
Sat 04:09:31 PM 37.2478 -111.1142 251° West 458 527 30,600 -878 Descending Denver Center
Sat 04:10:32 PM 37.2078 -111.2644 252° West 455 524 30,000 -293 Descending Denver Center
Sat 04:11:34 PM 37.1683 -111.4117 251° West 449 517 30,000  Level Denver Center
Sat 04:12:36 PM 37.1278 -111.5900 254° West 444 511 30,000  Level Denver Center
Sat 04:13:37 PM 37.0989 -111.7372 256° West 437 503 30,000  Level Denver Center
Sat 04:14:39 PM 37.0669 -111.8931 256° West 452 520 30,000  Level Denver Center
Sat 04:15:41 PM 37.0311 -112.0508 254° West 465 535 30,000  Level Denver Center
Sat 04:16:42 PM 36.9983 -112.2081 255° West 467 537 30,000  Level Denver Center
Sat 04:17:01 PM 36.9850 -112.2706 255° West 464 534 30,000  Level Los Angeles Center
Sat 04:18:03 PM 36.9503 -112.4264 254° West 464 534 30,000  Level Los Angeles Center
Sat 04:19:05 PM 36.9161 -112.5828 255° West 465 535 30,000  Level Los Angeles Center
Sat 04:20:07 PM 36.8808 -112.7392 254° West 465 535 30,000  Level Los Angeles Center
Sat 04:21:09 PM 36.8458 -112.8933 254° West 462 532 30,000  Level Los Angeles Center
Sat 04:22:11 PM 36.8114 -113.0489 255° West 464 534 30,000  Level Los Angeles Center
Sat 04:23:13 PM 36.7769 -113.2047 255° West 465 535 30,000  Level Los Angeles Center
Sat 04:24:15 PM 36.7347 -113.3906 254° West 464 534 30,000 -1,113 Level Los Angeles Center
Sat 04:25:17 PM 36.6997 -113.5458 254° West 466 536 27,700 -2,371 Descending Los Angeles Center
Sat 04:26:19 PM 36.6656 -113.6942 254° West 450 518 25,100 -2,468 Descending Los Angeles Center
Sat 04:27:21 PM 36.6331 -113.8381 254° West 436 502 22,600 -2,419 Descending Los Angeles Center
Sat 04:28:23 PM 36.6006 -113.9758 254° West 421 484 20,100 -2,371 Descending Los Angeles Center
Sat 04:29:25 PM 36.5658 -114.1108 252° West 412 474 17,700 -2,505 Descending Los Angeles Center
Sat 04:29:54 PM 36.5278 -114.1878 238° Southwest 428 493 16,300 -2,323 Descending Los Angeles Center
Sat 04:30:27 PM 36.5069 -114.2342 241° Southwest 410 472 15,300 -2,656 Descending Los Angeles Center
Sat 04:30:55 PM 36.4742 -114.3161 244° Southwest 400 460 13,600 -2,710 Descending Los Angeles Center
Sat 04:31:29 PM 36.4419 -114.3767 237° Southwest 396 456 12,500 -1,444 Descending Los Angeles Center
Sat 04:31:49 PM 36.4275 -114.4178 246° West 378 435 12,300 -484 Descending Los Angeles Center
Sat 04:32:31 PM 36.3894 -114.4775 232° Southwest 356 410 12,000 -393 Descending Los Angeles Center
Sat 04:32:50 PM 36.3603 -114.4942 205° Southwest 326 375 11,900 -290 Descending Los Angeles Center
Sat 04:33:33 PM 36.3103 -114.5236 205° Southwest 314 361 11,700 -627 Descending Los Angeles Center
Sat 04:33:57 PM 36.2803 -114.5533 219° Southwest 314 361 11,200 -1,258 Descending Los Angeles Center
Sat 04:34:35 PM 36.2414 -114.5858 214° Southwest 308 354 10,400 -1,522 Descending Los Angeles Center
Sat 04:35:04 PM 36.2028 -114.6225 217° Southwest 300 345 9,500 -1,258 Descending Los Angeles Center
Sat 04:35:37 PM 36.1717 -114.6433 208° Southwest 303 349 9,100 -982 Descending Los Angeles Center
Sat 04:35:59 PM 36.1422 -114.6719 218° Southwest 294 338 8,600 -774 Descending Los Angeles Center
Sat 04:36:39 PM 36.1078 -114.6972 211° Southwest 293 337 8,300 -537 Descending Los Angeles Center
Sat 04:37:06 PM 36.0775 -114.7311 222° Southwest 254 292 8,000 -871 Descending Los Angeles Center
Sat 04:37:41 PM 36.0736 -114.7789 264° West 262 302 7,400 -896 Descending Los Angeles Center
Sat 04:38:13 PM 36.0736 -114.8203 270° West 235 270 7,000 -762 Descending Los Angeles Center
Sat 04:38:44 PM 36.0739 -114.8544 271° West 236 272 6,600 -1,161 Descending Los Angeles Center
Sat 04:39:46 PM 36.0739 -114.9217 270° West 215 247 5,200 -1,286 Descending Los Angeles Center
Sat 04:40:08 PM 36.0733 -114.9481 269° West 191 220 4,800 -1,065 Descending Los Angeles Center
Sat 04:40:48 PM 36.0739 -114.9881 271° West 203 234 4,100 -1,082 Descending Los Angeles Center
Sat 04:41:09 PM 36.0739 -115.0200 270° West 190 219 3,700 -871 Descending Los Angeles Center
Sat 04:41:50 PM 36.0742 -115.0503 271° West 193 222 3,200 -757 Descending Los Angeles Center
Sat 04:42:52 PM 36.0742 -115.1039 270° West 176 203 2,400 -774 Descending Los Angeles Center
Sat 04:44:00 PM 36.0667 -115.1500 219° Southwest  Level FlightAware Approximate
Sat 04:51:00 PM 36.0801 -115.1523 219° Southwest  Level Estimated

Login

Don't have an account? Register now (free) for customized features, flight alerts, and more!